Time;durP1;ratioP1;P1;durP2;ratioP2;P2;SDS_P1;SDS_P2;PMS_P1;PMS_P2;Temp;Humidity;BMP_temperature;BMP_pressure;BME280_temperature;BME280_humidity;BME280_pressure;Samples;Min_cycle;Max_cycle;Signal;HPM_P1;HPM_P2
2021/05/17 00:00:09;;;;;;;14.33;13.53;;;10.80;99.90;;;;;;5054728;28;20892;-74
2021/05/17 00:02:37;;;;;;;15.03;13.93;;;10.70;99.90;;;;;;5070487;28;20462;-75
2021/05/17 00:05:04;;;;;;;15.50;14.70;;;10.70;99.90;;;;;;5065043;28;20470;-72
2021/05/17 00:07:30;;;;;;;16.20;15.30;;;10.60;99.90;;;;;;5076583;28;20505;-72
2021/05/17 00:09:58;;;;;;;17.67;16.60;;;10.60;99.90;;;;;;5068186;28;20454;-72
2021/05/17 00:12:25;;;;;;;17.77;16.77;;;10.50;99.90;;;;;;5067350;28;20469;-74
2021/05/17 00:14:52;;;;;;;17.67;16.67;;;10.60;99.90;;;;;;5067761;28;20960;-72
2021/05/17 00:17:19;;;;;;;18.47;16.87;;;10.60;99.90;;;;;;5077602;28;20474;-74
2021/05/17 00:19:46;;;;;;;16.57;15.57;;;10.50;99.90;;;;;;5076571;28;20452;-72
2021/05/17 00:22:12;;;;;;;17.40;16.20;;;10.60;99.90;;;;;;5067009;28;20477;-72
2021/05/17 00:24:39;;;;;;;16.60;15.70;;;10.40;99.90;;;;;;5067616;28;20453;-72
2021/05/17 00:27:08;;;;;;;16.90;15.90;;;10.40;99.90;;;;;;5059884;28;20506;-72
2021/05/17 00:29:34;;;;;;;16.47;15.50;;;10.50;99.90;;;;;;5071147;28;20467;-72
2021/05/17 00:32:01;;;;;;;17.13;15.97;;;10.40;99.90;;;;;;5075954;28;20471;-72
2021/05/17 00:34:28;;;;;;;16.30;15.50;;;10.50;99.90;;;;;;5076101;28;20459;-72
2021/05/17 00:36:55;;;;;;;16.13;15.30;;;10.60;99.90;;;;;;5067689;28;20473;-72
2021/05/17 00:39:22;;;;;;;16.33;15.43;;;10.50;99.90;;;;;;5066057;28;20458;-72
2021/05/17 00:41:49;;;;;;;16.67;15.37;;;10.50;99.90;;;;;;5063360;28;20495;-74
2021/05/17 00:44:16;;;;;;;15.63;14.83;;;10.50;99.90;;;;;;5066188;28;20554;-72
2021/05/17 00:46:44;;;;;;;16.43;15.30;;;10.40;99.90;;;;;;5068439;28;20556;-73
2021/05/17 00:49:11;;;;;;;16.27;15.20;;;10.40;99.90;;;;;;5074839;28;20538;-72
2021/05/17 00:51:38;;;;;;;16.27;15.00;;;10.40;99.90;;;;;;5068439;28;20679;-74
2021/05/17 00:54:05;;;;;;;15.97;15.10;;;10.40;99.90;;;;;;5065753;28;20827;-72
2021/05/17 00:56:32;;;;;;;16.90;15.77;;;10.30;99.90;;;;;;5074455;28;21008;-73
2021/05/17 00:58:58;;;;;;;16.10;15.20;;;10.30;99.90;;;;;;5075043;28;20526;-72
2021/05/17 01:01:27;;;;;;;16.30;15.20;;;10.20;99.90;;;;;;5058193;28;20558;-73
2021/05/17 01:03:53;;;;;;;16.03;15.03;;;10.20;99.90;;;;;;5063620;28;20526;-73
2021/05/17 01:06:21;;;;;;;16.80;15.60;;;10.20;99.90;;;;;;5065572;28;20492;-73
2021/05/17 01:08:57;;;;;;;15.97;15.10;;;10.10;99.90;;;;;;5069125;28;20547;-73
2021/05/17 01:11:27;;;;;;;15.67;14.77;;;10.10;99.90;;;;;;5062769;28;20466;-73
2021/05/17 01:13:57;;;;;;;14.90;14.20;;;10.00;99.90;;;;;;5072596;28;20962;-73
2021/05/17 01:16:25;;;;;;;15.83;14.83;;;10.00;99.90;;;;;;5062585;28;20459;-73
2021/05/17 01:18:52;;;;;;;15.27;14.47;;;9.90;99.90;;;;;;5067065;28;20461;-73
2021/05/17 01:21:20;;;;;;;16.07;15.17;;;9.90;99.90;;;;;;5063794;28;20459;-73
2021/05/17 01:23:54;;;;;;;15.63;14.70;;;9.90;99.90;;;;;;5071893;28;20453;-75
2021/05/17 01:26:22;;;;;;;15.40;14.60;;;9.90;99.90;;;;;;5066395;28;20494;-73
2021/05/17 01:28:52;;;;;;;15.77;14.77;;;10.00;99.90;;;;;;5063367;28;20542;-75
2021/05/17 01:31:18;;;;;;;15.70;14.77;;;9.90;99.90;;;;;;5060608;28;20462;-73
2021/05/17 01:33:47;;;;;;;16.10;15.03;;;9.90;99.90;;;;;;5065530;28;20470;-73
2021/05/17 01:36:15;;;;;;;16.50;15.20;;;9.80;99.90;;;;;;5063180;28;20462;-73
2021/05/17 01:38:43;;;;;;;15.37;14.47;;;9.70;99.90;;;;;;5075908;28;20574;-73
2021/05/17 01:41:13;;;;;;;15.00;14.30;;;9.70;99.90;;;;;;5070991;28;20466;-73
2021/05/17 01:43:42;;;;;;;15.13;14.23;;;9.70;99.90;;;;;;5064953;28;20495;-75
2021/05/17 01:46:10;;;;;;;15.77;14.90;;;9.70;99.90;;;;;;5065886;28;20473;-77
2021/05/17 01:48:40;;;;;;;15.07;14.27;;;9.70;99.90;;;;;;5056701;28;20483;-73
2021/05/17 01:51:14;;;;;;;15.70;14.80;;;9.70;99.90;;;;;;5059089;28;20474;-76
2021/05/17 01:53:41;;;;;;;15.30;14.50;;;9.80;99.90;;;;;;5071759;28;20475;-74
2021/05/17 01:56:11;;;;;;;15.20;14.40;;;9.70;99.90;;;;;;5076466;28;20461;-73
2021/05/17 01:58:38;;;;;;;15.30;14.50;;;9.80;99.90;;;;;;5062838;28;20547;-74
2021/05/17 02:01:06;;;;;;;15.03;14.33;;;9.80;99.90;;;;;;5065244;28;20919;-76
2021/05/17 02:03:37;;;;;;;15.13;14.43;;;9.90;99.90;;;;;;5068037;28;20462;-74
2021/05/17 02:06:05;;;;;;;15.63;14.50;;;9.80;99.90;;;;;;5056759;28;20480;-74
2021/05/17 02:08:33;;;;;;;15.37;14.40;;;9.90;99.90;;;;;;5068393;28;20472;-75
2021/05/17 02:11:01;;;;;;;15.70;14.90;;;9.80;99.90;;;;;;5069338;28;20468;-74
2021/05/17 02:13:29;;;;;;;15.00;14.30;;;9.80;99.90;;;;;;5066000;28;20462;-78
2021/05/17 02:15:56;;;;;;;15.33;14.23;;;9.80;99.90;;;;;;5069757;28;20465;-76
2021/05/17 02:18:23;;;;;;;14.20;13.50;;;9.90;99.90;;;;;;5058113;28;21120;-74
2021/05/17 02:20:49;;;;;;;15.70;14.80;;;9.90;99.90;;;;;;5076539;28;20492;-76
2021/05/17 02:23:17;;;;;;;14.33;13.63;;;9.90;99.90;;;;;;5067668;28;20464;-74
2021/05/17 02:25:46;;;;;;;14.50;13.80;;;9.90;99.90;;;;;;5069929;28;20522;-74
2021/05/17 02:28:13;;;;;;;14.53;13.73;;;9.90;99.90;;;;;;5073957;28;20463;-74
2021/05/17 02:30:41;;;;;;;15.07;14.10;;;9.90;99.90;;;;;;5070521;28;20489;-75
2021/05/17 02:33:09;;;;;;;14.33;13.63;;;9.90;99.90;;;;;;5060077;28;20831;-74
2021/05/17 02:35:36;;;;;;;14.77;13.87;;;10.00;99.90;;;;;;5072502;28;20458;-74
2021/05/17 02:38:04;;;;;;;15.23;14.20;;;10.00;99.90;;;;;;5056171;28;20456;-76
2021/05/17 02:40:31;;;;;;;15.57;14.53;;;10.00;99.90;;;;;;5065049;28;20543;-73
2021/05/17 02:43:01;;;;;;;15.10;14.30;;;10.00;99.90;;;;;;5070136;28;20503;-77
2021/05/17 02:45:28;;;;;;;15.60;14.70;;;10.00;99.90;;;;;;5072270;28;20467;-77
2021/05/17 02:47:57;;;;;;;14.63;13.93;;;10.10;99.90;;;;;;5070979;28;20504;-75
2021/05/17 02:50:33;;;;;;;14.87;13.87;;;10.10;99.90;;;;;;5061551;28;20483;-74
2021/05/17 02:53:01;;;;;;;16.40;15.40;;;10.10;99.90;;;;;;5057064;28;20455;-72
2021/05/17 02:55:32;;;;;;;18.03;16.87;;;10.20;99.90;;;;;;5064367;28;20456;-73
2021/05/17 02:58:07;;;;;;;17.60;16.60;;;10.20;99.90;;;;;;5064257;28;20457;-72
2021/05/17 03:00:36;;;;;;;17.70;16.60;;;10.10;99.90;;;;;;5062579;28;20468;-73
2021/05/17 03:03:24;;;;;;;17.20;16.27;;;10.10;99.90;;;;;;5067330;28;20491;-73
2021/05/17 03:06:01;;;;;;;16.50;15.60;;;10.10;99.90;;;;;;5056571;28;20565;-72
2021/05/17 03:08:30;;;;;;;16.50;15.50;;;10.10;99.90;;;;;;5073053;28;20488;-73
2021/05/17 03:10:58;;;;;;;17.00;15.90;;;10.10;99.90;;;;;;5063659;28;20778;-74
2021/05/17 03:13:26;;;;;;;16.43;15.53;;;10.10;99.90;;;;;;5059532;28;20465;-72
2021/05/17 03:15:53;;;;;;;16.50;15.50;;;10.10;99.90;;;;;;5066003;28;20466;-72
2021/05/17 03:18:19;;;;;;;17.20;15.80;;;10.10;99.90;;;;;;5069211;28;20462;-75
2021/05/17 03:20:47;;;;;;;16.43;15.40;;;10.10;99.90;;;;;;5068156;28;20466;-75
2021/05/17 03:23:15;;;;;;;16.80;15.80;;;10.10;99.90;;;;;;5070727;28;20501;-76
2021/05/17 03:25:45;;;;;;;16.80;15.90;;;10.10;99.90;;;;;;5068942;28;20460;-73
2021/05/17 03:28:12;;;;;;;16.70;15.70;;;10.20;99.90;;;;;;5057715;28;20500;-73
2021/05/17 03:30:38;;;;;;;17.83;16.57;;;10.10;99.90;;;;;;5063870;28;20457;-73
2021/05/17 03:33:05;;;;;;;17.60;16.60;;;10.20;99.90;;;;;;5067815;28;20456;-76
2021/05/17 03:35:31;;;;;;;19.40;16.10;;;10.20;99.90;;;;;;5064683;28;20517;-73
2021/05/17 03:37:59;;;;;;;17.10;15.80;;;10.20;99.90;;;;;;5074827;28;20486;-77
2021/05/17 03:40:25;;;;;;;17.40;16.13;;;10.20;99.90;;;;;;5070077;28;20465;-72
2021/05/17 03:42:51;;;;;;;17.67;16.40;;;10.20;99.90;;;;;;5063600;28;20509;-76
2021/05/17 03:45:18;;;;;;;18.70;17.23;;;10.20;99.90;;;;;;5068703;28;20531;-76
2021/05/17 03:47:45;;;;;;;17.50;16.60;;;10.30;99.90;;;;;;5070503;28;20567;-78
2021/05/17 03:50:13;;;;;;;18.70;17.60;;;10.30;99.90;;;;;;5059116;28;20464;-74
2021/05/17 03:52:40;;;;;;;17.40;16.40;;;10.30;99.90;;;;;;5064207;28;21006;-73
2021/05/17 03:55:10;;;;;;;17.93;16.90;;;10.30;99.90;;;;;;5061038;28;20869;-73
2021/05/17 03:57:37;;;;;;;18.70;17.23;;;10.30;99.90;;;;;;5064563;28;20641;-73
2021/05/17 04:00:07;;;;;;;18.17;17.07;;;10.30;99.90;;;;;;5062898;28;20802;-74
2021/05/17 04:02:34;;;;;;;18.77;17.27;;;10.30;99.90;;;;;;5065946;28;20544;-73
2021/05/17 04:05:10;;;;;;;17.83;16.73;;;10.30;99.90;;;;;;5074324;28;20465;-72
2021/05/17 04:15:56;;;;;;;18.53;16.87;;;10.50;99.90;;;;;;5056666;28;20476;-73
2021/05/17 04:18:23;;;;;;;18.60;17.30;;;10.40;99.90;;;;;;5068477;28;20460;-76
2021/05/17 04:20:52;;;;;;;18.03;16.73;;;10.40;99.90;;;;;;5065742;28;20474;-73
2021/05/17 04:23:20;;;;;;;20.20;18.70;;;10.50;99.90;;;;;;5074319;28;20457;-76
2021/05/17 04:25:48;;;;;;;18.33;17.13;;;10.50;99.90;;;;;;5071284;28;20453;-73
2021/05/17 04:28:15;;;;;;;20.17;18.63;;;10.50;99.90;;;;;;5060799;28;20525;-77
2021/05/17 04:30:41;;;;;;;19.20;17.30;;;10.60;99.90;;;;;;5062257;28;20452;-76
2021/05/17 04:33:08;;;;;;;17.77;16.53;;;10.60;99.90;;;;;;5065193;28;20793;-74
2021/05/17 04:35:34;;;;;;;17.07;16.00;;;10.60;99.90;;;;;;5070830;28;20462;-75
2021/05/17 04:38:01;;;;;;;18.30;16.63;;;10.60;99.90;;;;;;5071272;28;20457;-73
2021/05/17 04:40:28;;;;;;;18.90;17.70;;;10.70;99.90;;;;;;5068435;28;20458;-76
2021/05/17 04:42:56;;;;;;;19.37;17.47;;;10.80;99.90;;;;;;5067970;28;20484;-72
2021/05/17 04:45:24;;;;;;;17.87;16.60;;;10.80;99.90;;;;;;5065484;28;20456;-73
2021/05/17 04:47:50;;;;;;;18.20;17.00;;;10.80;99.90;;;;;;5068844;28;20487;-73
2021/05/17 04:50:17;;;;;;;18.50;17.17;;;10.90;99.90;;;;;;5067947;28;20691;-73
2021/05/17 04:52:44;;;;;;;18.57;17.50;;;10.80;99.90;;;;;;5066648;28;20486;-73
2021/05/17 04:55:11;;;;;;;19.80;18.20;;;10.90;99.90;;;;;;5067560;28;20478;-73
2021/05/17 04:57:37;;;;;;;18.73;17.33;;;10.90;99.90;;;;;;5068997;28;20466;-72
2021/05/17 05:00:06;;;;;;;18.67;17.27;;;10.90;99.90;;;;;;5066201;28;20467;-73
2021/05/17 05:02:35;;;;;;;17.77;16.67;;;10.90;99.90;;;;;;5069945;28;20466;-74
2021/05/17 05:05:01;;;;;;;18.40;16.80;;;11.00;99.90;;;;;;5066919;28;20466;-72
2021/05/17 05:07:27;;;;;;;18.77;17.40;;;11.00;99.90;;;;;;5065184;28;20500;-77
2021/05/17 05:09:54;;;;;;;19.27;17.40;;;11.00;99.90;;;;;;5063194;28;20461;-77
2021/05/17 05:12:20;;;;;;;18.53;17.30;;;11.00;99.90;;;;;;5059074;28;20463;-75
2021/05/17 05:14:47;;;;;;;18.97;17.50;;;11.10;99.90;;;;;;5066556;28;20465;-72
2021/05/17 05:17:14;;;;;;;19.37;16.87;;;11.10;99.90;;;;;;5077411;28;20822;-73
2021/05/17 05:19:40;;;;;;;17.57;16.57;;;11.20;99.90;;;;;;5067543;28;20460;-72
2021/05/17 05:22:06;;;;;;;17.63;16.53;;;11.20;99.90;;;;;;5063322;28;20471;-73
2021/05/17 05:24:33;;;;;;;18.37;16.97;;;11.30;99.90;;;;;;5068235;28;20966;-73
2021/05/17 05:27:07;;;;;;;18.10;16.40;;;11.30;99.90;;;;;;5074013;28;21041;-76
2021/05/17 05:29:47;;;;;;;18.27;16.60;;;11.30;99.90;;;;;;5074196;28;20947;-73
2021/05/17 05:32:24;;;;;;;17.10;15.90;;;11.30;99.90;;;;;;5063200;28;20472;-74
2021/05/17 05:34:51;;;;;;;16.33;15.23;;;11.30;99.90;;;;;;5068372;28;20472;-73
2021/05/17 05:37:18;;;;;;;17.87;16.37;;;11.50;99.90;;;;;;5068246;28;21022;-73
2021/05/17 05:39:45;;;;;;;16.43;15.10;;;11.50;99.90;;;;;;5070640;28;20494;-73
2021/05/17 05:42:12;;;;;;;17.80;16.30;;;11.60;99.90;;;;;;5072457;28;20480;-73
2021/05/17 05:44:46;;;;;;;16.33;15.20;;;11.60;99.90;;;;;;5064198;28;20451;-73
2021/05/17 05:47:15;;;;;;;17.00;15.43;;;11.70;99.90;;;;;;5060460;28;20490;-76
2021/05/17 05:49:43;;;;;;;19.67;15.90;;;11.70;99.90;;;;;;5067240;28;20470;-73
2021/05/17 05:52:10;;;;;;;17.00;15.70;;;11.70;99.90;;;;;;5065021;28;20544;-77
2021/05/17 05:54:36;;;;;;;15.67;14.70;;;11.80;99.90;;;;;;5068354;28;20999;-75
2021/05/17 05:57:06;;;;;;;16.57;15.30;;;11.90;99.90;;;;;;5070965;28;20519;-77
2021/05/17 05:59:32;;;;;;;18.00;16.27;;;11.90;99.90;;;;;;5071591;28;20490;-74
2021/05/17 06:01:58;;;;;;;17.30;15.73;;;11.80;99.90;;;;;;5064039;28;20478;-74
2021/05/17 06:04:25;;;;;;;17.03;15.80;;;12.00;99.90;;;;;;5061947;28;20810;-74
2021/05/17 06:06:52;;;;;;;17.47;16.13;;;12.00;99.90;;;;;;5058212;28;20479;-74
2021/05/17 06:09:19;;;;;;;15.90;14.90;;;12.10;99.90;;;;;;5067810;28;20521;-73
2021/05/17 06:11:46;;;;;;;16.73;15.73;;;12.30;99.90;;;;;;5068513;28;20532;-73
2021/05/17 06:14:13;;;;;;;16.83;15.77;;;12.40;99.90;;;;;;5058175;28;20980;-73
2021/05/17 06:16:40;;;;;;;16.50;15.60;;;12.60;99.90;;;;;;5058336;28;20479;-74
2021/05/17 06:19:07;;;;;;;15.80;14.80;;;12.90;99.90;;;;;;5063123;28;20467;-74
2021/05/17 06:21:34;;;;;;;16.23;15.30;;;13.00;99.90;;;;;;5066197;28;20521;-76
2021/05/17 06:24:03;;;;;;;15.90;15.00;;;12.90;99.90;;;;;;5067875;28;20471;-76
2021/05/17 06:26:30;;;;;;;16.77;15.60;;;13.10;99.90;;;;;;5059308;28;21056;-77
2021/05/17 06:28:57;;;;;;;15.97;15.07;;;13.20;99.90;;;;;;5068131;28;20925;-74
2021/05/17 06:31:24;;;;;;;16.00;15.20;;;13.10;99.90;;;;;;5067231;28;20837;-73
2021/05/17 06:33:52;;;;;;;16.30;15.30;;;13.00;99.90;;;;;;5060000;28;20557;-74
2021/05/17 06:36:19;;;;;;;16.67;15.73;;;13.10;99.90;;;;;;5062481;28;20467;-75
2021/05/17 06:38:46;;;;;;;15.53;14.63;;;13.30;99.90;;;;;;5064172;28;20471;-73
2021/05/17 06:41:13;;;;;;;15.40;14.57;;;13.40;99.90;;;;;;5068989;28;20475;-76
2021/05/17 06:43:40;;;;;;;14.57;13.87;;;13.30;99.90;;;;;;5063346;28;20472;-73
2021/05/17 06:46:08;;;;;;;15.07;14.07;;;13.40;99.90;;;;;;5070500;28;20984;-73
2021/05/17 06:48:42;;;;;;;14.77;13.67;;;13.40;99.90;;;;;;5060781;28;20483;-76
2021/05/17 06:51:11;;;;;;;14.17;13.17;;;13.50;99.90;;;;;;5063491;28;20485;-74
2021/05/17 06:53:39;;;;;;;14.03;13.23;;;13.50;99.90;;;;;;5057734;28;20521;-73
2021/05/17 06:56:09;;;;;;;14.10;13.23;;;13.50;99.90;;;;;;5059831;28;20540;-76
2021/05/17 06:58:47;;;;;;;14.93;13.73;;;13.40;99.90;;;;;;5053764;28;20829;-73
2021/05/17 07:01:15;;;;;;;14.87;13.50;;;13.30;99.90;;;;;;5061528;28;20524;-77
2021/05/17 07:03:41;;;;;;;14.30;13.40;;;13.10;99.90;;;;;;5056255;28;20467;-74
2021/05/17 07:06:10;;;;;;;14.47;13.23;;;13.20;99.90;;;;;;5057972;28;20459;-73
2021/05/17 07:11:39;;;;;;;14.10;13.20;;;12.90;99.90;;;;;;5057928;28;20505;-76
2021/05/17 07:14:05;;;;;;;14.17;13.07;;;12.80;99.90;;;;;;5055706;28;20471;-75
2021/05/17 07:16:31;;;;;;;14.17;13.27;;;13.00;99.90;;;;;;5057135;28;20470;-73
2021/05/17 07:18:58;;;;;;;13.80;12.83;;;13.00;99.90;;;;;;5060913;28;20581;-77
2021/05/17 07:24:09;;;;;;;15.73;14.10;;;13.10;99.90;;;;;;5057789;28;20896;-73
2021/05/17 07:26:37;;;;;;;14.00;13.07;;;13.20;99.90;;;;;;5052625;28;20483;-75
2021/05/17 07:29:05;;;;;;;15.30;14.00;;;13.40;99.90;;;;;;5056327;28;20463;-74
2021/05/17 07:31:31;;;;;;;14.63;13.73;;;13.40;99.90;;;;;;5054094;28;20521;-73
2021/05/17 07:33:58;;;;;;;14.50;13.40;;;13.30;99.90;;;;;;5059940;28;20828;-74
2021/05/17 07:36:25;;;;;;;14.80;13.67;;;13.40;99.90;;;;;;5058033;28;20459;-77
2021/05/17 07:38:52;;;;;;;15.30;14.10;;;13.60;99.90;;;;;;5056895;28;20490;-74
2021/05/17 07:41:19;;;;;;;14.97;13.97;;;13.70;99.90;;;;;;5057382;28;21038;-77
2021/05/17 07:43:47;;;;;;;14.60;13.80;;;13.90;99.90;;;;;;5058167;28;20930;-75
2021/05/17 07:46:14;;;;;;;16.10;14.87;;;14.20;99.90;;;;;;5056842;28;20466;-76
2021/05/17 07:51:22;;;;;;;15.27;14.10;;;14.10;99.90;;;;;;5056034;28;20498;-74
2021/05/17 07:53:49;;;;;;;16.20;14.90;;;14.20;99.90;;;;;;5057994;28;20641;-74
2021/05/17 07:56:16;;;;;;;14.80;14.10;;;14.50;99.90;;;;;;5057944;28;21095;-75
2021/05/17 07:58:43;;;;;;;15.57;14.60;;;14.80;99.90;;;;;;5056699;28;20838;-75
2021/05/17 08:01:11;;;;;;;15.30;14.50;;;14.70;99.90;;;;;;5058225;28;20463;-74
2021/05/17 08:03:37;;;;;;;15.30;14.50;;;14.50;99.90;;;;;;5058101;28;20512;-75
2021/05/17 08:06:05;;;;;;;15.57;14.50;;;13.60;99.90;;;;;;5056763;28;21044;-75
2021/05/17 08:08:31;;;;;;;14.83;13.90;;;13.90;99.90;;;;;;5056182;28;20883;-75
2021/05/17 08:10:58;;;;;;;14.33;13.53;;;14.10;99.90;;;;;;5059319;28;20935;-76
2021/05/17 08:13:24;;;;;;;14.30;13.50;;;13.70;99.90;;;;;;5061416;28;20490;-74
2021/05/17 08:15:51;;;;;;;14.93;14.13;;;13.80;99.90;;;;;;5059667;28;20454;-75
2021/05/17 08:18:18;;;;;;;14.73;14.00;;;13.70;99.90;;;;;;5057856;28;20459;-73
2021/05/17 08:20:44;;;;;;;16.43;15.30;;;13.40;99.90;;;;;;5064139;28;20464;-74
2021/05/17 08:23:15;;;;;;;14.50;13.80;;;13.20;99.90;;;;;;5064282;28;20474;-74
2021/05/17 08:25:42;;;;;;;14.23;13.43;;;13.10;99.90;;;;;;5055742;28;20466;-76
2021/05/17 08:28:08;;;;;;;14.50;13.70;;;12.80;99.90;;;;;;5058912;28;20525;-74
2021/05/17 08:30:41;;;;;;;14.80;14.10;;;13.00;99.90;;;;;;5058623;28;20462;-74
2021/05/17 08:33:07;;;;;;;14.83;14.03;;;13.40;99.90;;;;;;5056567;28;20463;-74
2021/05/17 08:35:35;;;;;;;15.60;14.60;;;13.80;99.90;;;;;;5060409;28;20904;-74
2021/05/17 08:38:01;;;;;;;15.43;14.53;;;14.10;99.90;;;;;;5062349;28;20463;-75
2021/05/17 08:40:27;;;;;;;15.93;14.93;;;14.20;99.90;;;;;;5059459;28;20463;-74
2021/05/17 08:42:55;;;;;;;14.47;13.77;;;14.40;99.90;;;;;;5059604;28;20483;-74
2021/05/17 08:45:22;;;;;;;15.77;14.67;;;14.70;99.90;;;;;;5060688;28;20538;-74
2021/05/17 08:47:49;;;;;;;15.37;14.37;;;14.60;99.90;;;;;;5059809;28;20490;-74
2021/05/17 08:50:15;;;;;;;15.20;14.13;;;14.70;99.90;;;;;;5062079;28;20466;-75
2021/05/17 08:52:43;;;;;;;15.73;14.93;;;14.90;99.90;;;;;;5059219;28;20981;-76
2021/05/17 08:55:12;;;;;;;15.60;14.73;;;15.10;99.90;;;;;;5061226;28;20459;-74
2021/05/17 08:57:41;;;;;;;15.30;14.30;;;15.40;99.90;;;;;;5058388;28;20466;-76
2021/05/17 09:00:08;;;;;;;16.13;15.03;;;15.10;99.90;;;;;;5059088;28;20459;-74
2021/05/17 09:02:35;;;;;;;14.97;14.07;;;15.40;99.90;;;;;;5060541;28;20533;-75
2021/05/17 09:05:09;;;;;;;16.43;15.00;;;15.90;99.90;;;;;;5060059;28;20462;-75
2021/05/17 09:07:42;;;;;;;15.57;14.77;;;16.50;99.90;;;;;;5058512;28;20484;-74
2021/05/17 09:10:16;;;;;;;15.33;14.53;;;16.60;99.90;;;;;;5057205;28;20467;-75
2021/05/17 09:13:03;;;;;;;16.30;15.10;;;16.70;99.90;;;;;;5057870;28;20967;-75
2021/05/17 09:15:36;;;;;;;16.30;15.20;;;16.50;99.90;;;;;;5053609;28;20458;-75
2021/05/17 09:18:05;;;;;;;15.57;14.53;;;16.60;99.90;;;;;;5055054;28;20470;-75
2021/05/17 09:20:36;;;;;;;14.60;13.90;;;16.80;99.90;;;;;;5057231;28;20462;-74
2021/05/17 09:23:24;;;;;;;14.83;13.93;;;16.50;99.90;;;;;;5057348;28;21018;-75
2021/05/17 09:26:06;;;;;;;13.67;13.03;;;16.80;99.90;;;;;;5064426;28;21048;-74
2021/05/17 09:28:34;;;;;;;15.70;14.47;;;16.80;99.90;;;;;;5049853;28;20492;-75
2021/05/17 09:31:04;;;;;;;15.00;14.03;;;16.50;99.90;;;;;;5056309;28;20561;-74
2021/05/17 09:33:42;;;;;;;14.33;13.53;;;16.30;99.90;;;;;;5054292;28;20611;-74
2021/05/17 09:36:27;;;;;;;15.93;15.03;;;16.70;99.90;;;;;;5059147;28;20463;-75
2021/05/17 09:38:59;;;;;;;16.30;15.40;;;16.80;99.90;;;;;;5060218;28;20473;-74
2021/05/17 09:41:38;;;;;;;17.03;15.50;;;16.30;99.90;;;;;;5060670;28;20487;-77
2021/05/17 09:44:07;;;;;;;16.70;15.77;;;15.50;99.90;;;;;;5056608;28;20468;-73
2021/05/17 09:46:54;;;;;;;19.33;17.80;;;15.00;99.90;;;;;;5046944;28;20482;-73
2021/05/17 09:49:28;;;;;;;22.53;21.03;;;14.40;99.90;;;;;;5054744;28;20480;-73
2021/05/17 09:52:08;;;;;;;22.20;20.90;;;13.30;99.90;;;;;;5061147;28;20462;-73
2021/05/17 09:54:54;;;;;;;19.87;18.77;;;12.60;99.90;;;;;;5063809;28;20461;-74
2021/05/17 09:57:22;;;;;;;18.90;17.90;;;12.40;99.90;;;;;;5053471;28;20498;-73
2021/05/17 09:59:50;;;;;;;15.63;14.83;;;12.30;99.90;;;;;;5055338;28;20470;-76
2021/05/17 10:02:31;;;;;;;15.90;15.10;;;12.60;99.90;;;;;;5050164;28;20905;-75
2021/05/17 10:04:58;;;;;;;12.40;11.90;;;13.20;99.90;;;;;;5058902;28;20455;-74
2021/05/17 10:07:24;;;;;;;13.87;13.27;;;14.30;99.90;;;;;;5056054;28;20490;-75
2021/05/17 10:09:52;;;;;;;13.23;12.63;;;15.00;99.90;;;;;;5064460;28;20468;-74
2021/05/17 10:12:20;;;;;;;15.17;14.47;;;15.30;99.90;;;;;;5049369;28;20547;-75
2021/05/17 10:14:46;;;;;;;15.07;14.37;;;14.80;99.90;;;;;;5059093;28;21006;-73
2021/05/17 10:17:14;;;;;;;16.70;15.90;;;14.20;99.90;;;;;;5061190;28;20985;-75
2021/05/17 10:19:40;;;;;;;21.20;19.90;;;13.70;99.90;;;;;;5058375;28;20492;-74
2021/05/17 10:22:07;;;;;;;19.00;17.90;;;13.10;99.90;;;;;;5062094;28;20478;-79
2021/05/17 10:24:34;;;;;;;16.07;15.27;;;12.80;99.90;;;;;;5062224;28;20464;-77
2021/05/17 10:27:02;;;;;;;16.30;15.50;;;12.90;99.90;;;;;;5061177;28;20482;-76
2021/05/17 10:29:34;;;;;;;16.10;15.30;;;13.00;99.90;;;;;;5057905;28;20458;-76
2021/05/17 10:32:02;;;;;;;13.73;13.13;;;12.70;99.90;;;;;;5056969;28;21001;-76
2021/05/17 10:34:28;;;;;;;12.87;12.37;;;12.90;99.90;;;;;;5065569;28;21044;-76
2021/05/17 10:36:57;;;;;;;13.30;12.70;;;13.40;99.90;;;;;;5058715;28;20481;-73
2021/05/17 10:39:29;;;;;;;14.20;13.60;;;13.80;99.90;;;;;;5057368;28;20532;-74
2021/05/17 10:42:14;;;;;;;15.43;14.73;;;13.70;99.90;;;;;;5052099;28;20483;-76
2021/05/17 10:47:46;;;;;;;16.60;15.80;;;13.30;99.90;;;;;;5059160;28;20518;-73
2021/05/17 10:50:15;;;;;;;17.40;16.50;;;12.90;99.90;;;;;;5060890;28;20460;-74
2021/05/17 10:52:42;;;;;;;16.23;15.43;;;12.60;99.90;;;;;;5064058;28;20962;-75
2021/05/17 10:55:12;;;;;;;15.80;15.00;;;12.70;99.90;;;;;;5049902;28;20809;-73
2021/05/17 10:58:07;;;;;;;15.70;15.00;;;12.80;99.90;;;;;;5056145;28;20547;-73
2021/05/17 11:00:36;;;;;;;16.80;15.90;;;12.90;99.90;;;;;;5065888;28;20877;-73
2021/05/17 11:03:11;;;;;;;16.60;15.80;;;13.00;99.90;;;;;;5058153;28;20561;-74
2021/05/17 11:05:39;;;;;;;16.63;15.83;;;12.80;99.90;;;;;;5050854;28;20451;-75
2021/05/17 11:08:09;;;;;;;16.57;15.77;;;12.40;99.90;;;;;;5057383;28;20540;-77
2021/05/17 11:10:38;;;;;;;16.20;15.40;;;12.20;99.90;;;;;;5057111;28;20490;-74
2021/05/17 11:13:11;;;;;;;17.13;16.23;;;11.90;99.90;;;;;;5051995;28;21036;-77
2021/05/17 11:16:04;;;;;;;16.60;15.80;;;11.80;99.90;;;;;;5054032;28;20968;-75
2021/05/17 11:18:43;;;;;;;15.43;14.73;;;11.80;99.90;;;;;;5053376;28;20461;-78
2021/05/17 11:21:25;;;;;;;14.73;14.03;;;11.80;99.90;;;;;;5057569;28;20876;-77
2021/05/17 11:24:03;;;;;;;15.67;14.97;;;11.80;99.90;;;;;;5054707;28;20466;-74
2021/05/17 11:26:32;;;;;;;15.20;14.50;;;11.80;99.90;;;;;;5051117;28;20470;-77
2021/05/17 11:29:06;;;;;;;14.43;13.83;;;11.80;99.90;;;;;;5063007;28;20498;-76
2021/05/17 11:31:41;;;;;;;13.70;13.10;;;11.80;99.90;;;;;;5057691;28;20466;-77
2021/05/17 11:34:24;;;;;;;13.63;13.03;;;11.90;99.90;;;;;;5063641;28;20465;-74
2021/05/17 11:37:12;;;;;;;13.90;13.30;;;11.90;99.90;;;;;;5050516;28;20473;-75
2021/05/17 11:39:41;;;;;;;12.50;12.00;;;11.80;99.90;;;;;;5058456;28;20485;-75
2021/05/17 11:42:10;;;;;;;11.10;10.70;;;12.10;99.90;;;;;;5057488;28;20493;-75
2021/05/17 11:44:39;;;;;;;10.97;10.57;;;12.40;99.90;;;;;;5059875;28;20473;-74
2021/05/17 11:47:09;;;;;;;11.33;10.93;;;12.70;99.90;;;;;;5061464;28;20495;-74
2021/05/17 11:49:37;;;;;;;11.33;10.83;;;12.80;99.90;;;;;;5059338;28;20475;-76
2021/05/17 11:52:07;;;;;;;11.27;10.87;;;12.90;99.90;;;;;;5067288;28;20784;-75
2021/05/17 11:54:37;;;;;;;12.33;11.83;;;12.90;99.90;;;;;;5058164;28;20458;-76
2021/05/17 11:57:05;;;;;;;11.70;11.20;;;12.90;99.90;;;;;;5054782;28;20468;-77
2021/05/17 11:59:33;;;;;;;11.30;10.90;;;12.90;99.90;;;;;;5059853;28;20462;-76
2021/05/17 12:02:01;;;;;;;11.00;10.60;;;13.30;99.90;;;;;;5063418;28;21024;-77
2021/05/17 12:04:33;;;;;;;12.17;11.67;;;13.80;99.90;;;;;;5065996;28;20464;-76
2021/05/17 12:07:01;;;;;;;11.70;11.20;;;14.00;99.90;;;;;;5063127;28;20514;-76
2021/05/17 12:09:35;;;;;;;14.00;13.40;;;14.60;99.90;;;;;;5058438;28;20466;-76
2021/05/17 12:12:05;;;;;;;14.90;14.20;;;14.50;99.90;;;;;;5055500;28;20799;-74
2021/05/17 12:14:33;;;;;;;16.03;15.23;;;13.80;99.90;;;;;;5058145;28;20490;-80
2021/05/17 12:17:11;;;;;;;15.20;14.50;;;13.50;99.90;;;;;;5069019;28;20458;-75
2021/05/17 12:19:40;;;;;;;15.97;15.17;;;13.30;99.90;;;;;;5065622;28;20462;-74
2021/05/17 12:22:09;;;;;;;16.60;15.80;;;13.00;99.90;;;;;;5059846;28;20458;-75
2021/05/17 12:24:36;;;;;;;16.10;15.30;;;12.60;99.90;;;;;;5049729;28;20528;-79
2021/05/17 12:27:04;;;;;;;14.23;13.53;;;12.40;99.90;;;;;;5055727;28;20971;-78
2021/05/17 12:29:52;;;;;;;13.70;13.10;;;12.40;99.90;;;;;;5064311;28;20463;-75
2021/05/17 12:32:21;;;;;;;12.00;11.50;;;12.60;99.90;;;;;;5065134;28;20484;-74
2021/05/17 12:34:57;;;;;;;12.13;11.63;;;12.80;99.90;;;;;;5066549;28;20471;-75
2021/05/17 12:37:25;;;;;;;11.97;11.47;;;12.80;99.90;;;;;;5057943;28;20801;-75
2021/05/17 12:40:30;;;;;;;10.00;9.60;;;13.00;99.90;;;;;;5059323;28;20463;-75
2021/05/17 12:43:16;;;;;;;10.77;10.37;;;13.40;99.90;;;;;;5019866;28;20480;-75
2021/05/17 12:45:45;;;;;;;11.40;10.90;;;13.90;99.90;;;;;;5019291;28;20590;-76
2021/05/17 12:48:19;;;;;;;11.17;10.77;;;13.80;99.90;;;;;;5047808;28;20497;-75
2021/05/17 12:50:48;;;;;;;15.43;14.63;;;14.00;99.90;;;;;;5061681;28;20812;-76
2021/05/17 12:53:18;;;;;;;15.60;14.80;;;13.50;99.90;;;;;;5060325;28;21044;-75
2021/05/17 12:55:46;;;;;;;16.20;15.40;;;13.10;99.90;;;;;;5054090;28;20463;-76
2021/05/17 12:58:14;;;;;;;15.57;14.77;;;12.90;99.90;;;;;;5063648;28;21013;-76